sensor_id;sensor_type;location;lat;lon;timestamp;temperature;humidity
39503;DHT22;26970;49.900;10.774;2022-11-20T00:01:18;-1.20;99.90
39503;DHT22;26970;49.900;10.774;2022-11-20T00:03:44;-1.20;99.90
39503;DHT22;26970;49.900;10.774;2022-11-20T00:06:15;-1.10;99.90
39503;DHT22;26970;49.900;10.774;2022-11-20T00:08:41;-1.10;99.90
39503;DHT22;26970;49.900;10.774;2022-11-20T00:11:12;-1.10;99.90
39503;DHT22;26970;49.900;10.774;2022-11-20T00:13:38;-1.10;99.90
39503;DHT22;26970;49.900;10.774;2022-11-20T00:16:05;-1.20;99.90
39503;DHT22;26970;49.900;10.774;2022-11-20T00:18:32;-1.20;99.90
39503;DHT22;26970;49.900;10.774;2022-11-20T00:21:06;-1.30;99.90
39503;DHT22;26970;49.900;10.774;2022-11-20T00:23:33;-0.80;99.90
39503;DHT22;26970;49.900;10.774;2022-11-20T00:26:06;-1.50;99.90
39503;DHT22;26970;49.900;10.774;2022-11-20T00:28:34;-0.70;99.90
39503;DHT22;26970;49.900;10.774;2022-11-20T00:31:06;-1.60;99.90
39503;DHT22;26970;49.900;10.774;2022-11-20T00:33:33;-1.60;99.90
39503;DHT22;26970;49.900;10.774;2022-11-20T00:36:03;-1.60;99.90
39503;DHT22;26970;49.900;10.774;2022-11-20T00:38:29;-1.70;99.90
39503;DHT22;26970;49.900;10.774;2022-11-20T00:41:00;-1.70;99.90
39503;DHT22;26970;49.900;10.774;2022-11-20T00:43:28;-1.70;99.90
39503;DHT22;26970;49.900;10.774;2022-11-20T00:46:02;-1.80;99.90
39503;DHT22;26970;49.900;10.774;2022-11-20T00:48:28;-1.80;99.90
39503;DHT22;26970;49.900;10.774;2022-11-20T00:50:53;-1.80;99.90
39503;DHT22;26970;49.900;10.774;2022-11-20T00:53:20;-1.80;99.90
39503;DHT22;26970;49.900;10.774;2022-11-20T00:56:00;-1.90;99.90
39503;DHT22;26970;49.900;10.774;2022-11-20T00:58:30;-1.80;99.90
39503;DHT22;26970;49.900;10.774;2022-11-20T01:01:14;-1.70;99.90
39503;DHT22;26970;49.900;10.774;2022-11-20T01:03:42;-1.80;99.90
39503;DHT22;26970;49.900;10.774;2022-11-20T01:06:23;-1.20;99.90
39503;DHT22;26970;49.900;10.774;2022-11-20T01:08:50;-1.80;99.90
39503;DHT22;26970;49.900;10.774;2022-11-20T01:11:20;-1.80;99.90
39503;DHT22;26970;49.900;10.774;2022-11-20T01:13:48;-1.80;99.90
39503;DHT22;26970;49.900;10.774;2022-11-20T01:16:16;-1.80;99.90
39503;DHT22;26970;49.900;10.774;2022-11-20T01:18:44;-1.00;99.90
39503;DHT22;26970;49.900;10.774;2022-11-20T01:21:14;-1.80;99.90
39503;DHT22;26970;49.900;10.774;2022-11-20T01:23:42;-1.80;99.90
39503;DHT22;26970;49.900;10.774;2022-11-20T01:26:14;-1.70;99.90
39503;DHT22;26970;49.900;10.774;2022-11-20T01:28:40;-1.50;99.90
39503;DHT22;26970;49.900;10.774;2022-11-20T01:33:40;-1.80;99.90
39503;DHT22;26970;49.900;10.774;2022-11-20T01:36:07;-2.50;99.90
39503;DHT22;26970;49.900;10.774;2022-11-20T01:38:34;-1.80;99.90
39503;DHT22;26970;49.900;10.774;2022-11-20T01:41:00;-1.70;99.90
39503;DHT22;26970;49.900;10.774;2022-11-20T01:43:25;-1.80;99.90
39503;DHT22;26970;49.900;10.774;2022-11-20T01:51:58;-1.80;99.90
39503;DHT22;26970;49.900;10.774;2022-11-20T01:54:09;-1.70;99.90
39503;DHT22;26970;49.900;10.774;2022-11-20T01:56:38;-1.70;99.90
39503;DHT22;26970;49.900;10.774;2022-11-20T01:59:08;-1.80;99.90
39503;DHT22;26970;49.900;10.774;2022-11-20T02:01:35;-1.00;99.90
39503;DHT22;26970;49.900;10.774;2022-11-20T02:04:01;-1.80;99.90
39503;DHT22;26970;49.900;10.774;2022-11-20T02:06:59;-1.80;99.90
39503;DHT22;26970;49.900;10.774;2022-11-20T02:09:25;-1.80;99.90
39503;DHT22;26970;49.900;10.774;2022-11-20T02:11:52;-1.40;99.90
39503;DHT22;26970;49.900;10.774;2022-11-20T02:14:18;-1.70;99.90
39503;DHT22;26970;49.900;10.774;2022-11-20T02:16:46;-1.70;99.90
39503;DHT22;26970;49.900;10.774;2022-11-20T02:19:32;-1.70;99.90
39503;DHT22;26970;49.900;10.774;2022-11-20T02:22:05;-1.80;99.90
39503;DHT22;26970;49.900;10.774;2022-11-20T02:24:33;-1.80;99.90
39503;DHT22;26970;49.900;10.774;2022-11-20T02:27:04;-1.50;99.90
39503;DHT22;26970;49.900;10.774;2022-11-20T02:29:45;-1.80;99.90
39503;DHT22;26970;49.900;10.774;2022-11-20T02:32:26;-1.80;99.90
39503;DHT22;26970;49.900;10.774;2022-11-20T02:34:52;-1.80;99.90
39503;DHT22;26970;49.900;10.774;2022-11-20T02:37:20;-1.90;99.90
39503;DHT22;26970;49.900;10.774;2022-11-20T02:39:50;-1.90;99.90
39503;DHT22;26970;49.900;10.774;2022-11-20T02:42:17;-1.90;99.90
39503;DHT22;26970;49.900;10.774;2022-11-20T02:44:43;-1.90;99.90
39503;DHT22;26970;49.900;10.774;2022-11-20T02:47:08;-1.90;99.90
39503;DHT22;26970;49.900;10.774;2022-11-20T02:49:34;-1.90;99.90
39503;DHT22;26970;49.900;10.774;2022-11-20T02:52:00;-1.80;99.90
39503;DHT22;26970;49.900;10.774;2022-11-20T02:54:26;-1.70;99.90
39503;DHT22;26970;49.900;10.774;2022-11-20T02:56:52;-1.80;99.90
39503;DHT22;26970;49.900;10.774;2022-11-20T02:59:17;-1.80;99.90
39503;DHT22;26970;49.900;10.774;2022-11-20T03:01:43;-1.90;99.90
39503;DHT22;26970;49.900;10.774;2022-11-20T03:04:09;-1.90;99.90
39503;DHT22;26970;49.900;10.774;2022-11-20T03:06:34;-1.90;99.90
39503;DHT22;26970;49.900;10.774;2022-11-20T03:09:00;-2.00;99.90
39503;DHT22;26970;49.900;10.774;2022-11-20T03:11:26;-1.90;99.90
39503;DHT22;26970;49.900;10.774;2022-11-20T03:13:52;-2.00;99.90
39503;DHT22;26970;49.900;10.774;2022-11-20T03:16:22;-1.90;99.90
39503;DHT22;26970;49.900;10.774;2022-11-20T03:18:48;-2.00;99.90
39503;DHT22;26970;49.900;10.774;2022-11-20T03:21:15;-1.80;99.90
39503;DHT22;26970;49.900;10.774;2022-11-20T03:23:42;-1.90;99.90
39503;DHT22;26970;49.900;10.774;2022-11-20T03:26:14;-1.90;99.90
39503;DHT22;26970;49.900;10.774;2022-11-20T03:28:41;-1.90;99.90
39503;DHT22;26970;49.900;10.774;2022-11-20T03:31:10;-1.90;99.90
39503;DHT22;26970;49.900;10.774;2022-11-20T03:33:36;-1.70;99.90
39503;DHT22;26970;49.900;10.774;2022-11-20T03:36:04;-1.80;99.90
39503;DHT22;26970;49.900;10.774;2022-11-20T03:38:30;-1.50;99.90
39503;DHT22;26970;49.900;10.774;2022-11-20T03:41:06;-1.10;99.90
39503;DHT22;26970;49.900;10.774;2022-11-20T03:43:32;-1.00;99.90
39503;DHT22;26970;49.900;10.774;2022-11-20T03:45:58;-1.20;99.90
39503;DHT22;26970;49.900;10.774;2022-11-20T03:48:24;-1.20;99.90
39503;DHT22;26970;49.900;10.774;2022-11-20T03:50:52;-1.30;99.90
39503;DHT22;26970;49.900;10.774;2022-11-20T03:53:19;-1.30;99.90
39503;DHT22;26970;49.900;10.774;2022-11-20T03:55:50;-1.30;99.90
39503;DHT22;26970;49.900;10.774;2022-11-20T03:58:15;-1.40;99.90
39503;DHT22;26970;49.900;10.774;2022-11-20T04:00:41;-1.00;99.90
39503;DHT22;26970;49.900;10.774;2022-11-20T04:03:06;-1.00;99.90
39503;DHT22;26970;49.900;10.774;2022-11-20T04:05:33;-1.20;99.90
39503;DHT22;26970;49.900;10.774;2022-11-20T04:07:59;-1.20;99.90
39503;DHT22;26970;49.900;10.774;2022-11-20T04:10:25;-1.20;99.90
39503;DHT22;26970;49.900;10.774;2022-11-20T04:12:51;-1.30;99.90
39503;DHT22;26970;49.900;10.774;2022-11-20T04:15:16;-1.20;99.90
39503;DHT22;26970;49.900;10.774;2022-11-20T04:17:42;-1.20;99.90
39503;DHT22;26970;49.900;10.774;2022-11-20T04:20:08;-1.20;99.90
39503;DHT22;26970;49.900;10.774;2022-11-20T04:22:33;-1.20;99.90
39503;DHT22;26970;49.900;10.774;2022-11-20T04:24:59;-1.20;99.90
39503;DHT22;26970;49.900;10.774;2022-11-20T04:27:25;-1.20;99.90
39503;DHT22;26970;49.900;10.774;2022-11-20T04:29:50;-1.20;99.90
39503;DHT22;26970;49.900;10.774;2022-11-20T04:32:16;-1.30;99.90
39503;DHT22;26970;49.900;10.774;2022-11-20T04:34:42;-1.20;99.90
39503;DHT22;26970;49.900;10.774;2022-11-20T04:37:07;-1.20;99.90
39503;DHT22;26970;49.900;10.774;2022-11-20T04:39:33;-1.30;99.90
39503;DHT22;26970;49.900;10.774;2022-11-20T04:41:59;-1.30;99.90
39503;DHT22;26970;49.900;10.774;2022-11-20T04:44:43;-1.30;99.90
39503;DHT22;26970;49.900;10.774;2022-11-20T04:47:08;-1.30;99.90
39503;DHT22;26970;49.900;10.774;2022-11-20T04:49:34;-1.30;99.90
39503;DHT22;26970;49.900;10.774;2022-11-20T04:51:59;-1.30;99.90
39503;DHT22;26970;49.900;10.774;2022-11-20T04:54:25;-1.40;99.90
39503;DHT22;26970;49.900;10.774;2022-11-20T04:56:51;-1.40;99.90
39503;DHT22;26970;49.900;10.774;2022-11-20T04:59:16;-1.40;99.90
39503;DHT22;26970;49.900;10.774;2022-11-20T05:01:42;-1.40;99.90
39503;DHT22;26970;49.900;10.774;2022-11-20T05:04:08;-1.30;99.90
39503;DHT22;26970;49.900;10.774;2022-11-20T05:06:33;-1.20;99.90
39503;DHT22;26970;49.900;10.774;2022-11-20T05:08:59;-0.90;99.90
39503;DHT22;26970;49.900;10.774;2022-11-20T05:11:26;-0.90;99.90
39503;DHT22;26970;49.900;10.774;2022-11-20T05:13:54;-1.00;99.90
39503;DHT22;26970;49.900;10.774;2022-11-20T05:16:22;-1.00;99.90
39503;DHT22;26970;49.900;10.774;2022-11-20T05:18:49;-1.00;99.90
39503;DHT22;26970;49.900;10.774;2022-11-20T05:21:15;-0.90;99.90
39503;DHT22;26970;49.900;10.774;2022-11-20T05:23:42;-1.00;99.90
39503;DHT22;26970;49.900;10.774;2022-11-20T05:26:16;-1.10;99.90
39503;DHT22;26970;49.900;10.774;2022-11-20T05:28:42;-1.10;99.90
39503;DHT22;26970;49.900;10.774;2022-11-20T05:31:10;-1.20;99.90
39503;DHT22;26970;49.900;10.774;2022-11-20T05:33:36;-1.20;99.90
39503;DHT22;26970;49.900;10.774;2022-11-20T05:36:05;-1.30;99.90
39503;DHT22;26970;49.900;10.774;2022-11-20T05:38:31;-1.10;99.90
39503;DHT22;26970;49.900;10.774;2022-11-20T05:43:38;-1.20;99.90
39503;DHT22;26970;49.900;10.774;2022-11-20T05:46:05;-1.30;99.90
39503;DHT22;26970;49.900;10.774;2022-11-20T05:48:31;-1.30;99.90
39503;DHT22;26970;49.900;10.774;2022-11-20T05:50:58;-1.20;99.90
39503;DHT22;26970;49.900;10.774;2022-11-20T05:53:24;-1.20;99.90
39503;DHT22;26970;49.900;10.774;2022-11-20T05:56:10;-1.20;99.90
39503;DHT22;26970;49.900;10.774;2022-11-20T05:58:37;-1.20;99.90
39503;DHT22;26970;49.900;10.774;2022-11-20T06:01:08;-0.70;99.90
39503;DHT22;26970;49.900;10.774;2022-11-20T06:03:34;-1.20;99.90
39503;DHT22;26970;49.900;10.774;2022-11-20T06:06:01;-0.40;99.90
39503;DHT22;26970;49.900;10.774;2022-11-20T06:08:27;-1.10;99.90
39503;DHT22;26970;49.900;10.774;2022-11-20T06:10:52;-0.90;99.90
39503;DHT22;26970;49.900;10.774;2022-11-20T06:13:18;-0.50;99.90
39503;DHT22;26970;49.900;10.774;2022-11-20T06:15:51;-0.70;99.90
39503;DHT22;26970;49.900;10.774;2022-11-20T06:18:17;-0.80;99.90
39503;DHT22;26970;49.900;10.774;2022-11-20T06:20:42;-0.90;99.90
39503;DHT22;26970;49.900;10.774;2022-11-20T06:23:08;-1.00;99.90
39503;DHT22;26970;49.900;10.774;2022-11-20T06:25:37;-1.00;99.90
39503;DHT22;26970;49.900;10.774;2022-11-20T06:28:03;-1.10;99.90
39503;DHT22;26970;49.900;10.774;2022-11-20T06:30:29;-1.10;99.90
39503;DHT22;26970;49.900;10.774;2022-11-20T06:32:55;-1.10;99.90
39503;DHT22;26970;49.900;10.774;2022-11-20T06:35:20;-1.10;99.90
39503;DHT22;26970;49.900;10.774;2022-11-20T06:37:46;-1.10;99.90
39503;DHT22;26970;49.900;10.774;2022-11-20T06:40:12;-1.00;99.90
39503;DHT22;26970;49.900;10.774;2022-11-20T06:42:38;-0.80;99.90
39503;DHT22;26970;49.900;10.774;2022-11-20T06:45:17;-0.80;99.90
39503;DHT22;26970;49.900;10.774;2022-11-20T06:47:58;-0.80;99.90
39503;DHT22;26970;49.900;10.774;2022-11-20T06:50:23;-0.80;99.90
39503;DHT22;26970;49.900;10.774;2022-11-20T06:52:49;-0.80;99.90
39503;DHT22;26970;49.900;10.774;2022-11-20T06:55:20;-0.80;99.90
39503;DHT22;26970;49.900;10.774;2022-11-20T06:57:51;-0.80;99.90
39503;DHT22;26970;49.900;10.774;2022-11-20T07:00:16;-0.80;99.90
39503;DHT22;26970;49.900;10.774;2022-11-20T07:02:42;-0.90;99.90
39503;DHT22;26970;49.900;10.774;2022-11-20T07:05:08;-0.80;99.90
39503;DHT22;26970;49.900;10.774;2022-11-20T07:07:33;-0.40;99.90
39503;DHT22;26970;49.900;10.774;2022-11-20T07:09:59;-0.60;99.90
39503;DHT22;26970;49.900;10.774;2022-11-20T07:12:24;-0.70;99.90
39503;DHT22;26970;49.900;10.774;2022-11-20T07:14:50;-0.50;99.90
39503;DHT22;26970;49.900;10.774;2022-11-20T07:17:16;-0.10;99.90
39503;DHT22;26970;49.900;10.774;2022-11-20T07:19:43;-0.10;99.90
39503;DHT22;26970;49.900;10.774;2022-11-20T07:22:08;-0.10;99.90
39503;DHT22;26970;49.900;10.774;2022-11-20T07:24:35;-0.20;99.90
39503;DHT22;26970;49.900;10.774;2022-11-20T07:27:01;-0.30;99.90
39503;DHT22;26970;49.900;10.774;2022-11-20T07:29:26;-0.40;99.90
39503;DHT22;26970;49.900;10.774;2022-11-20T07:31:52;0.20;99.90
39503;DHT22;26970;49.900;10.774;2022-11-20T07:34:18;0.00;99.90
39503;DHT22;26970;49.900;10.774;2022-11-20T07:36:45;-0.10;99.90
39503;DHT22;26970;49.900;10.774;2022-11-20T07:39:11;-0.20;99.90
39503;DHT22;26970;49.900;10.774;2022-11-20T07:41:36;-0.20;99.90
39503;DHT22;26970;49.900;10.774;2022-11-20T07:44:02;-0.30;99.90
39503;DHT22;26970;49.900;10.774;2022-11-20T07:46:28;-0.40;99.90
39503;DHT22;26970;49.900;10.774;2022-11-20T07:48:53;-0.40;99.90
39503;DHT22;26970;49.900;10.774;2022-11-20T07:51:19;-0.40;99.90
39503;DHT22;26970;49.900;10.774;2022-11-20T07:53:44;-0.40;99.90
39503;DHT22;26970;49.900;10.774;2022-11-20T07:56:10;-0.30;99.90
39503;DHT22;26970;49.900;10.774;2022-11-20T07:58:36;0.20;99.90
39503;DHT22;26970;49.900;10.774;2022-11-20T08:01:06;-0.20;99.90
39503;DHT22;26970;49.900;10.774;2022-11-20T08:03:32;-0.20;99.90
39503;DHT22;26970;49.900;10.774;2022-11-20T08:06:01;-0.20;99.90
39503;DHT22;26970;49.900;10.774;2022-11-20T08:08:28;-0.10;99.90
39503;DHT22;26970;49.900;10.774;2022-11-20T08:10:54;0.00;99.90
39503;DHT22;26970;49.900;10.774;2022-11-20T08:13:39;0.10;99.90
39503;DHT22;26970;49.900;10.774;2022-11-20T08:16:23;0.30;99.90
39503;DHT22;26970;49.900;10.774;2022-11-20T08:18:49;0.30;99.90
39503;DHT22;26970;49.900;10.774;2022-11-20T08:21:15;0.10;99.90
39503;DHT22;26970;49.900;10.774;2022-11-20T08:23:40;0.00;99.90
39503;DHT22;26970;49.900;10.774;2022-11-20T08:26:06;0.10;99.90
39503;DHT22;26970;49.900;10.774;2022-11-20T08:28:32;0.10;99.90
39503;DHT22;26970;49.900;10.774;2022-11-20T08:31:02;0.10;99.90
39503;DHT22;26970;49.900;10.774;2022-11-20T08:33:28;0.10;99.90
39503;DHT22;26970;49.900;10.774;2022-11-20T08:35:53;0.10;99.90
39503;DHT22;26970;49.900;10.774;2022-11-20T08:38:23;0.10;99.90
39503;DHT22;26970;49.900;10.774;2022-11-20T08:40:48;0.20;99.90
39503;DHT22;26970;49.900;10.774;2022-11-20T08:43:34;0.10;99.90
39503;DHT22;26970;49.900;10.774;2022-11-20T08:45:59;0.20;99.90
39503;DHT22;26970;49.900;10.774;2022-11-20T08:48:25;0.30;99.90
39503;DHT22;26970;49.900;10.774;2022-11-20T08:50:51;0.30;99.90
39503;DHT22;26970;49.900;10.774;2022-11-20T08:53:16;0.40;99.90
39503;DHT22;26970;49.900;10.774;2022-11-20T08:55:42;0.40;99.90
39503;DHT22;26970;49.900;10.774;2022-11-20T08:58:08;0.50;99.90
39503;DHT22;26970;49.900;10.774;2022-11-20T09:00:34;0.50;99.90
39503;DHT22;26970;49.900;10.774;2022-11-20T09:03:00;0.50;99.90
39503;DHT22;26970;49.900;10.774;2022-11-20T09:05:26;0.60;99.90
39503;DHT22;26970;49.900;10.774;2022-11-20T09:07:55;0.90;99.90
39503;DHT22;26970;49.900;10.774;2022-11-20T09:10:21;1.00;99.90
39503;DHT22;26970;49.900;10.774;2022-11-20T09:12:49;0.90;99.90
39503;DHT22;26970;49.900;10.774;2022-11-20T09:15:15;0.90;99.90
39503;DHT22;26970;49.900;10.774;2022-11-20T09:17:40;0.90;99.90
39503;DHT22;26970;49.900;10.774;2022-11-20T09:20:06;0.80;99.90
39503;DHT22;26970;49.900;10.774;2022-11-20T09:22:32;0.70;99.90
39503;DHT22;26970;49.900;10.774;2022-11-20T09:24:58;0.70;99.90
39503;DHT22;26970;49.900;10.774;2022-11-20T09:27:23;0.60;99.90
39503;DHT22;26970;49.900;10.774;2022-11-20T09:29:49;0.60;99.90
39503;DHT22;26970;49.900;10.774;2022-11-20T09:32:15;0.50;99.90
39503;DHT22;26970;49.900;10.774;2022-11-20T09:34:40;0.50;99.90
39503;DHT22;26970;49.900;10.774;2022-11-20T09:37:06;0.60;99.90
39503;DHT22;26970;49.900;10.774;2022-11-20T09:39:31;0.60;99.90
39503;DHT22;26970;49.900;10.774;2022-11-20T09:45:10;0.70;99.90
39503;DHT22;26970;49.900;10.774;2022-11-20T09:47:58;0.60;99.90
39503;DHT22;26970;49.900;10.774;2022-11-20T09:55:31;0.90;99.90
39503;DHT22;26970;49.900;10.774;2022-11-20T09:57:58;0.90;99.90
39503;DHT22;26970;49.900;10.774;2022-11-20T10:00:25;0.90;99.90
39503;DHT22;26970;49.900;10.774;2022-11-20T10:03:06;1.00;99.90
39503;DHT22;26970;49.900;10.774;2022-11-20T10:05:44;1.00;99.90
39503;DHT22;26970;49.900;10.774;2022-11-20T10:08:33;1.20;99.90
39503;DHT22;26970;49.900;10.774;2022-11-20T10:13:40;1.70;99.90
39503;DHT22;26970;49.900;10.774;2022-11-20T10:22:21;1.60;99.90
39503;DHT22;26970;49.900;10.774;2022-11-20T10:25:18;1.50;99.90
39503;DHT22;26970;49.900;10.774;2022-11-20T10:27:54;1.40;99.90
39503;DHT22;26970;49.900;10.774;2022-11-20T10:30:22;1.50;99.90
39503;DHT22;26970;49.900;10.774;2022-11-20T10:33:04;1.50;99.90
39503;DHT22;26970;49.900;10.774;2022-11-20T10:35:49;1.50;99.90
39503;DHT22;26970;49.900;10.774;2022-11-20T10:38:30;1.60;99.90
39503;DHT22;26970;49.900;10.774;2022-11-20T10:41:02;1.70;99.90
39503;DHT22;26970;49.900;10.774;2022-11-20T10:43:48;1.80;99.90
39503;DHT22;26970;49.900;10.774;2022-11-20T10:46:22;1.90;99.90
39503;DHT22;26970;49.900;10.774;2022-11-20T10:48:48;1.90;99.90
39503;DHT22;26970;49.900;10.774;2022-11-20T11:01:29;2.50;99.90
39503;DHT22;26970;49.900;10.774;2022-11-20T11:03:55;2.40;99.90
39503;DHT22;26970;49.900;10.774;2022-11-20T11:06:31;2.40;99.90
39503;DHT22;26970;49.900;10.774;2022-11-20T11:09:04;2.30;99.90
39503;DHT22;26970;49.900;10.774;2022-11-20T11:11:34;2.30;99.90
39503;DHT22;26970;49.900;10.774;2022-11-20T11:14:14;2.60;99.90
39503;DHT22;26970;49.900;10.774;2022-11-20T11:16:51;2.50;99.90
39503;DHT22;26970;49.900;10.774;2022-11-20T11:19:17;2.50;99.90
39503;DHT22;26970;49.900;10.774;2022-11-20T11:21:54;2.40;99.90
39503;DHT22;26970;49.900;10.774;2022-11-20T11:24:25;2.60;99.90
39503;DHT22;26970;49.900;10.774;2022-11-20T11:27:03;2.60;99.90
39503;DHT22;26970;49.900;10.774;2022-11-20T11:29:32;2.90;99.90
39503;DHT22;26970;49.900;10.774;2022-11-20T11:32:28;3.00;99.90
39503;DHT22;26970;49.900;10.774;2022-11-20T11:35:06;3.00;99.90
39503;DHT22;26970;49.900;10.774;2022-11-20T11:38:01;2.90;99.90
39503;DHT22;26970;49.900;10.774;2022-11-20T11:40:31;3.00;99.90
39503;DHT22;26970;49.900;10.774;2022-11-20T11:43:01;3.10;99.90
39503;DHT22;26970;49.900;10.774;2022-11-20T11:45:27;3.10;99.90
39503;DHT22;26970;49.900;10.774;2022-11-20T11:47:56;3.20;99.90
39503;DHT22;26970;49.900;10.774;2022-11-20T11:50:24;3.20;99.90
39503;DHT22;26970;49.900;10.774;2022-11-20T11:53:12;3.20;99.90
39503;DHT22;26970;49.900;10.774;2022-11-20T12:03:40;2.60;99.90
39503;DHT22;26970;49.900;10.774;2022-11-20T12:06:15;2.50;99.90
39503;DHT22;26970;49.900;10.774;2022-11-20T12:08:49;2.50;99.90
39503;DHT22;26970;49.900;10.774;2022-11-20T12:11:30;2.50;99.90
39503;DHT22;26970;49.900;10.774;2022-11-20T12:14:19;2.40;99.90
39503;DHT22;26970;49.900;10.774;2022-11-20T12:16:50;2.40;99.90
39503;DHT22;26970;49.900;10.774;2022-11-20T12:19:16;2.20;99.90
39503;DHT22;26970;49.900;10.774;2022-11-20T12:38:33;2.30;99.90
39503;DHT22;26970;49.900;10.774;2022-11-20T13:00:42;1.90;99.90
39503;DHT22;26970;49.900;10.774;2022-11-20T13:03:33;1.90;99.90
39503;DHT22;26970;49.900;10.774;2022-11-20T13:06:11;1.90;99.90
39503;DHT22;26970;49.900;10.774;2022-11-20T13:08:43;1.90;99.90
39503;DHT22;26970;49.900;10.774;2022-11-20T13:11:23;2.00;99.90
39503;DHT22;26970;49.900;10.774;2022-11-20T13:16:33;2.10;99.90
39503;DHT22;26970;49.900;10.774;2022-11-20T13:19:03;2.10;99.90
39503;DHT22;26970;49.900;10.774;2022-11-20T13:21:40;2.10;99.90
39503;DHT22;26970;49.900;10.774;2022-11-20T13:26:44;2.00;99.90
39503;DHT22;26970;49.900;10.774;2022-11-20T13:29:18;1.90;99.90
39503;DHT22;26970;49.900;10.774;2022-11-20T13:31:48;1.80;99.90
39503;DHT22;26970;49.900;10.774;2022-11-20T13:34:26;1.80;99.90
39503;DHT22;26970;49.900;10.774;2022-11-20T13:36:57;1.80;99.90
39503;DHT22;26970;49.900;10.774;2022-11-20T13:39:33;1.70;99.90
39503;DHT22;26970;49.900;10.774;2022-11-20T13:42:20;1.70;99.90
39503;DHT22;26970;49.900;10.774;2022-11-20T13:44:53;1.70;99.90
39503;DHT22;26970;49.900;10.774;2022-11-20T13:47:24;1.70;99.90
39503;DHT22;26970;49.900;10.774;2022-11-20T13:49:51;1.80;99.90
39503;DHT22;26970;49.900;10.774;2022-11-20T13:52:56;1.90;99.90
39503;DHT22;26970;49.900;10.774;2022-11-20T14:01:10;1.90;99.90
39503;DHT22;26970;49.900;10.774;2022-11-20T14:03:40;2.00;99.90
39503;DHT22;26970;49.900;10.774;2022-11-20T14:06:12;1.90;99.90
39503;DHT22;26970;49.900;10.774;2022-11-20T14:08:43;1.90;99.90
39503;DHT22;26970;49.900;10.774;2022-11-20T14:11:22;2.00;99.90
39503;DHT22;26970;49.900;10.774;2022-11-20T14:14:15;1.90;99.90
39503;DHT22;26970;49.900;10.774;2022-11-20T14:16:41;1.90;99.90
39503;DHT22;26970;49.900;10.774;2022-11-20T14:19:23;1.90;99.90
39503;DHT22;26970;49.900;10.774;2022-11-20T14:22:07;1.80;99.90
39503;DHT22;26970;49.900;10.774;2022-11-20T14:24:32;1.90;99.90
39503;DHT22;26970;49.900;10.774;2022-11-20T14:26:58;1.90;99.90
39503;DHT22;26970;49.900;10.774;2022-11-20T14:29:29;1.90;99.90
39503;DHT22;26970;49.900;10.774;2022-11-20T14:31:58;1.90;99.90
39503;DHT22;26970;49.900;10.774;2022-11-20T14:34:27;1.90;99.90
39503;DHT22;26970;49.900;10.774;2022-11-20T14:37:04;1.90;99.90
39503;DHT22;26970;49.900;10.774;2022-11-20T14:39:36;1.80;99.90
39503;DHT22;26970;49.900;10.774;2022-11-20T14:42:03;1.80;99.90
39503;DHT22;26970;49.900;10.774;2022-11-20T14:44:39;1.80;99.90
39503;DHT22;26970;49.900;10.774;2022-11-20T14:47:05;1.70;99.90
39503;DHT22;26970;49.900;10.774;2022-11-20T14:49:31;1.70;99.90
39503;DHT22;26970;49.900;10.774;2022-11-20T14:52:03;1.70;99.90
39503;DHT22;26970;49.900;10.774;2022-11-20T14:54:43;1.70;99.90
39503;DHT22;26970;49.900;10.774;2022-11-20T14:57:40;1.70;99.90
39503;DHT22;26970;49.900;10.774;2022-11-20T15:02:45;1.60;99.90
39503;DHT22;26970;49.900;10.774;2022-11-20T15:05:11;1.60;99.90
39503;DHT22;26970;49.900;10.774;2022-11-20T15:07:42;1.60;99.90
39503;DHT22;26970;49.900;10.774;2022-11-20T15:10:26;1.60;99.90
39503;DHT22;26970;49.900;10.774;2022-11-20T15:13:00;1.60;99.90
39503;DHT22;26970;49.900;10.774;2022-11-20T15:18:01;1.60;99.90
39503;DHT22;26970;49.900;10.774;2022-11-20T15:20:31;1.50;99.90
39503;DHT22;26970;49.900;10.774;2022-11-20T15:22:57;1.50;99.90
39503;DHT22;26970;49.900;10.774;2022-11-20T15:25:22;1.50;99.90
39503;DHT22;26970;49.900;10.774;2022-11-20T15:27:53;1.50;99.90
39503;DHT22;26970;49.900;10.774;2022-11-20T15:30:24;1.50;99.90
39503;DHT22;26970;49.900;10.774;2022-11-20T15:32:50;1.60;99.90
39503;DHT22;26970;49.900;10.774;2022-11-20T15:35:16;1.70;99.90
39503;DHT22;26970;49.900;10.774;2022-11-20T15:37:42;1.80;99.90
39503;DHT22;26970;49.900;10.774;2022-11-20T15:40:08;1.80;99.90
39503;DHT22;26970;49.900;10.774;2022-11-20T15:42:34;1.70;99.90
39503;DHT22;26970;49.900;10.774;2022-11-20T15:45:00;1.70;99.90
39503;DHT22;26970;49.900;10.774;2022-11-20T15:47:29;1.70;99.90
39503;DHT22;26970;49.900;10.774;2022-11-20T15:49:55;1.80;99.90
39503;DHT22;26970;49.900;10.774;2022-11-20T15:52:21;1.90;99.90
39503;DHT22;26970;49.900;10.774;2022-11-20T15:54:47;2.00;99.90
39503;DHT22;26970;49.900;10.774;2022-11-20T15:57:13;1.90;99.90
39503;DHT22;26970;49.900;10.774;2022-11-20T15:59:39;1.90;99.90
39503;DHT22;26970;49.900;10.774;2022-11-20T16:02:15;1.90;99.90
39503;DHT22;26970;49.900;10.774;2022-11-20T16:04:41;1.80;99.90
39503;DHT22;26970;49.900;10.774;2022-11-20T16:07:07;1.70;99.90
39503;DHT22;26970;49.900;10.774;2022-11-20T16:09:33;1.50;99.90
39503;DHT22;26970;49.900;10.774;2022-11-20T16:11:59;1.50;99.90
39503;DHT22;26970;49.900;10.774;2022-11-20T16:14:26;1.50;99.90
39503;DHT22;26970;49.900;10.774;2022-11-20T16:17:10;1.60;99.90
39503;DHT22;26970;49.900;10.774;2022-11-20T16:19:38;1.80;99.90
39503;DHT22;26970;49.900;10.774;2022-11-20T16:22:04;1.90;99.90
39503;DHT22;26970;49.900;10.774;2022-11-20T16:24:30;1.80;99.90
39503;DHT22;26970;49.900;10.774;2022-11-20T16:26:56;1.80;99.90
39503;DHT22;26970;49.900;10.774;2022-11-20T16:29:22;1.80;99.90
39503;DHT22;26970;49.900;10.774;2022-11-20T16:31:48;1.70;99.90
39503;DHT22;26970;49.900;10.774;2022-11-20T16:34:16;1.70;99.90
39503;DHT22;26970;49.900;10.774;2022-11-20T16:36:43;1.60;99.90
39503;DHT22;26970;49.900;10.774;2022-11-20T16:39:10;1.70;99.90
39503;DHT22;26970;49.900;10.774;2022-11-20T16:41:37;1.70;99.90
39503;DHT22;26970;49.900;10.774;2022-11-20T16:44:07;1.80;99.90
39503;DHT22;26970;49.900;10.774;2022-11-20T16:46:33;1.80;99.90
39503;DHT22;26970;49.900;10.774;2022-11-20T16:49:06;1.80;99.90
39503;DHT22;26970;49.900;10.774;2022-11-20T16:51:35;1.80;99.90
39503;DHT22;26970;49.900;10.774;2022-11-20T16:54:03;1.60;99.90
39503;DHT22;26970;49.900;10.774;2022-11-20T16:56:29;1.60;99.90
39503;DHT22;26970;49.900;10.774;2022-11-20T16:58:57;1.80;99.90
39503;DHT22;26970;49.900;10.774;2022-11-20T17:01:25;1.80;99.90
39503;DHT22;26970;49.900;10.774;2022-11-20T17:04:01;1.80;99.90
39503;DHT22;26970;49.900;10.774;2022-11-20T17:06:30;1.90;99.90
39503;DHT22;26970;49.900;10.774;2022-11-20T17:08:57;1.90;99.90
39503;DHT22;26970;49.900;10.774;2022-11-20T17:11:23;1.90;99.90
39503;DHT22;26970;49.900;10.774;2022-11-20T17:13:49;1.90;99.90
39503;DHT22;26970;49.900;10.774;2022-11-20T17:16:18;1.90;99.90